Buoy 60728

sailwx.info

Track history (hours):
 
Tides and Currents Weather Stations Pressure Air Temp Water Temp Dewpoint Dewpoint Depression Visibility Wind Speed Wind Dir Waves Ship Positions

Min Long Yu F60728

Last reported at 2017-Sep-19 11:19 UTC. Time now 2017-Sep-19 22:32 UTC.
Position N 24°19' E 118°07'.

Length 22 m.

Type: Fishing. MMSI: 412445171.

Date/timePositionNaut miles runAvg speedWind from/ knotsBaromVisibWave heightAir tempDewpointWater temp
2017-Sep-19 11:19N 24°19' E 118°07'0 0.6
2017-Sep-19 10:58N 24°19' E 118°07'3 5.5
2017-Sep-19 10:31N 24°19' E 118°10'4 2.3
2017-Sep-19 08:39N 24°18' E 118°14'1 3.9
2017-Sep-19 08:29N 24°18' E 118°14'0 0.7
2017-Sep-19 07:53N 24°19' E 118°14'0 0.5
2017-Sep-19 07:29N 24°19' E 118°13'1 1.5
2017-Sep-19 06:54N 24°19' E 118°13'1 1.9
2017-Sep-19 06:29N 24°19' E 118°13'1 0.1
2017-Sep-18 18:25N 24°18' E 118°14'3 7.9
2017-Sep-18 18:00N 24°18' E 118°10'3 0.3
2017-Sep-18 06:10N 24°19' E 118°07'0 0.6
2017-Sep-18 05:59N 24°19' E 118°07'0 0.0
2017-Sep-18 05:26N 24°19' E 118°07'1 1.9
2017-Sep-18 05:00N 24°19' E 118°08'5 0.4
2017-Sep-17 15:01N 24°17' E 118°13'1 7.2
2017-Sep-17 14:53N 24°18' E 118°12'3 7.8
2017-Sep-17 14:30N 24°19' E 118°09'2 0.3
2017-Sep-17 07:20N 24°19' E 118°07'0 0.0
2017-Sep-17 06:58N 24°19' E 118°07'0 0.2
2017-Sep-17 06:30N 24°19' E 118°07'1 1.2
2017-Sep-17 06:00N 24°19' E 118°08'3 6.6
2017-Sep-17 05:30N 24°17' E 118°10'4 7.0
2017-Sep-17 05:00N 24°14' E 118°13'2 0.1
2017-Sep-16 09:44N 24°15' E 118°15'2 7.2
2017-Sep-16 09:30N 24°16' E 118°14'4 7.3
2017-Sep-16 09:00N 24°18' E 118°11'4 1.9
2017-Sep-16 07:05N 24°19' E 118°07'0 1.1
2017-Sep-16 07:00N 24°19' E 118°07'0 0.0
2017-Sep-16 06:30N 24°19' E 118°07'3 7.0
2017-Sep-16 06:00N 24°18' E 118°10'4 7.7
2017-Sep-16 05:26N 24°16' E 118°15'6 0.3
2017-Sep-15 13:15N 24°20' E 118°11'2 8.7
2017-Sep-15 12:59N 24°21' E 118°09'4 9.1
2017-Sep-15 12:30N 24°24' E 118°05'4 8.8
2017-Sep-15 12:00N 24°25' E 118°00'1 1.0
2017-Sep-15 11:30N 24°25' E 117°60'82616.2
2017-Sep-13 08:30N 37°57' E 120°53'2 1.4
2017-Sep-13 07:01N 37°57' E 120°51'0 2.5
2017-Sep-13 06:55N 37°57' E 120°51'1 3.0
2017-Sep-13 06:29N 37°57' E 120°53'1 2.6
2017-Sep-13 05:57N 37°57' E 120°54'1 1.0
2017-Sep-13 05:23N 37°57' E 120°54'83035.8
2017-Sep-12 06:09N 24°19' E 118°08'1 8.7
2017-Sep-12 05:59N 24°19' E 118°09'5 9.2
2017-Sep-12 05:29N 24°18' E 118°14'1 1.0
2017-Sep-12 04:34N 24°17' E 118°15'0 2.3
2017-Sep-12 04:28N 24°17' E 118°14'1 1.2
2017-Sep-12 04:00N 24°16' E 118°14'1 1.1
2017-Sep-12 03:28N 24°16' E 118°14'1 1.1
2017-Sep-12 02:39N 24°15' E 118°15'1 4.0
2017-Sep-12 02:26N 24°15' E 118°14'1 3.0
2017-Sep-12 01:57N 24°14' E 118°13'0 0.4
2017-Sep-12 01:02N 24°15' E 118°13'0 0.7
2017-Sep-12 00:54N 24°15' E 118°13'1 2.4
2017-Sep-12 00:29N 24°14' E 118°12'2 3.2
2017-Sep-11 23:55N 24°15' E 118°14'0 0.7
2017-Sep-11 23:30N 24°15' E 118°13'1 2.7
2017-Sep-11 22:59N 24°15' E 118°12'1 1.0
2017-Sep-11 22:28N 24°15' E 118°12'2 3.3
2017-Sep-11 22:00N 24°16' E 118°14'1 2.1
2017-Sep-11 21:30N 24°16' E 118°12'4 8.4
2017-Sep-11 21:00N 24°19' E 118°09'3 0.3
2017-Sep-11 07:59N 24°17' E 118°12'0 0.6
2017-Sep-11 07:23N 24°17' E 118°12'0 0.6
2017-Sep-11 06:52N 24°17' E 118°12'0 0.7
2017-Sep-11 06:17N 24°17' E 118°13'0 0.7
2017-Sep-11 05:58N 24°17' E 118°13'1 0.8
2017-Sep-11 05:13N 24°16' E 118°14'0 0.2
2017-Sep-11 04:48N 24°16' E 118°14'0 0.4
2017-Sep-11 04:27N 24°16' E 118°14'0 0.7
2017-Sep-11 03:57N 24°16' E 118°14'0 0.7
2017-Sep-11 03:30N 24°16' E 118°14'1 1.6
2017-Sep-11 02:58N 24°15' E 118°14'1 1.7
2017-Sep-11 02:28N 24°14' E 118°13'0 0.9
2017-Sep-11 02:00N 24°14' E 118°13'0 0.2
2017-Sep-11 01:26N 24°14' E 118°13'0 0.4
2017-Sep-11 00:58N 24°14' E 118°13'2 4.5
2017-Sep-11 00:30N 24°12' E 118°12'0 0.6
2017-Sep-10 23:57N 24°12' E 118°11'2 3.8
2017-Sep-10 23:29N 24°14' E 118°12'0 0.9
2017-Sep-10 23:00N 24°13' E 118°12'1 3.0
2017-Sep-10 22:30N 24°12' E 118°10'1 1.1
2017-Sep-10 22:00N 24°13' E 118°11'1 2.9
2017-Sep-10 21:30N 24°14' E 118°12'1 2.5
2017-Sep-10 20:59N 24°15' E 118°12'5 0.4
2017-Sep-10 09:00N 24°19' E 118°08'4 7.1
2017-Sep-10 08:27N 24°17' E 118°11'4 7.8
2017-Sep-10 07:59N 24°16' E 118°15'3 0.5
2017-Sep-10 00:47N 24°14' E 118°18'1 1.8
2017-Sep-10 00:29N 24°13' E 118°18'0 0.6
2017-Sep-10 00:00N 24°13' E 118°17'1 0.5
2017-Sep-09 21:02N 24°14' E 118°16'1 3.2
2017-Sep-09 20:47N 24°14' E 118°16'1 2.5
2017-Sep-09 20:19N 24°13' E 118°15'2 2.7
2017-Sep-09 19:29N 24°15' E 118°16'0 0.4
2017-Sep-09 18:42N 24°15' E 118°16'3 6.3
2017-Sep-09 18:14N 24°18' E 118°15'0 0.9
2017-Sep-09 17:59N 24°18' E 118°16'1 0.6
2017-Sep-09 17:08N 24°17' E 118°16'1 0.6
2017-Sep-09 16:07N 24°17' E 118°17'1 6.1
2017-Sep-09 16:00N 24°17' E 118°16'3 7.0
2017-Sep-09 15:30N 24°18' E 118°12'  
Track history (hours):
 
Tides and Currents Weather Stations Pressure Air Temp Water Temp Dewpoint Dewpoint Depression Visibility Wind Speed Wind Dir Waves Ship Positions

Min Long Yu F60728

Last reported at 2017-Sep-19 11:19 UTC. Time now 2017-Sep-19 22:32 UTC.
Position N 24°19' E 118°07'.

Length 22 m.

Type: Fishing. MMSI: 412445171.

Date/timePositionNaut miles runAvg speedWind from/ knotsBaromVisibWave heightAir tempDewpointWater temp
2017-Sep-19 11:19N 24°19' E 118°07'0 0.6
2017-Sep-19 10:58N 24°19' E 118°07'3 5.5
2017-Sep-19 10:31N 24°19' E 118°10'4 2.3
2017-Sep-19 08:39N 24°18' E 118°14'1 3.9
2017-Sep-19 08:29N 24°18' E 118°14'0 0.7
2017-Sep-19 07:53N 24°19' E 118°14'0 0.5
2017-Sep-19 07:29N 24°19' E 118°13'1 1.5
2017-Sep-19 06:54N 24°19' E 118°13'1 1.9
2017-Sep-19 06:29N 24°19' E 118°13'1 0.1
2017-Sep-18 18:25N 24°18' E 118°14'3 7.9
2017-Sep-18 18:00N 24°18' E 118°10'3 0.3
2017-Sep-18 06:10N 24°19' E 118°07'0 0.6
2017-Sep-18 05:59N 24°19' E 118°07'0 0.0
2017-Sep-18 05:26N 24°19' E 118°07'1 1.9
2017-Sep-18 05:00N 24°19' E 118°08'5 0.4
2017-Sep-17 15:01N 24°17' E 118°13'1 7.2
2017-Sep-17 14:53N 24°18' E 118°12'3 7.8
2017-Sep-17 14:30N 24°19' E 118°09'2 0.3
2017-Sep-17 07:20N 24°19' E 118°07'0 0.0
2017-Sep-17 06:58N 24°19' E 118°07'0 0.2
2017-Sep-17 06:30N 24°19' E 118°07'1 1.2
2017-Sep-17 06:00N 24°19' E 118°08'3 6.6
2017-Sep-17 05:30N 24°17' E 118°10'4 7.0
2017-Sep-17 05:00N 24°14' E 118°13'2 0.1
2017-Sep-16 09:44N 24°15' E 118°15'2 7.2
2017-Sep-16 09:30N 24°16' E 118°14'4 7.3
2017-Sep-16 09:00N 24°18' E 118°11'4 1.9
2017-Sep-16 07:05N 24°19' E 118°07'0 1.1
2017-Sep-16 07:00N 24°19' E 118°07'0 0.0
2017-Sep-16 06:30N 24°19' E 118°07'3 7.0
2017-Sep-16 06:00N 24°18' E 118°10'4 7.7
2017-Sep-16 05:26N 24°16' E 118°15'6 0.3
2017-Sep-15 13:15N 24°20' E 118°11'2 8.7
2017-Sep-15 12:59N 24°21' E 118°09'4 9.1
2017-Sep-15 12:30N 24°24' E 118°05'4 8.8
2017-Sep-15 12:00N 24°25' E 118°00'1 1.0
2017-Sep-15 11:30N 24°25' E 117°60'82616.2
2017-Sep-13 08:30N 37°57' E 120°53'2 1.4
2017-Sep-13 07:01N 37°57' E 120°51'0 2.5
2017-Sep-13 06:55N 37°57' E 120°51'1 3.0
2017-Sep-13 06:29N 37°57' E 120°53'1 2.6
2017-Sep-13 05:57N 37°57' E 120°54'1 1.0
2017-Sep-13 05:23N 37°57' E 120°54'83035.8
2017-Sep-12 06:09N 24°19' E 118°08'1 8.7
2017-Sep-12 05:59N 24°19' E 118°09'5 9.2
2017-Sep-12 05:29N 24°18' E 118°14'1 1.0
2017-Sep-12 04:34N 24°17' E 118°15'0 2.3
2017-Sep-12 04:28N 24°17' E 118°14'1 1.2
2017-Sep-12 04:00N 24°16' E 118°14'1 1.1
2017-Sep-12 03:28N 24°16' E 118°14'1 1.1
2017-Sep-12 02:39N 24°15' E 118°15'1 4.0
2017-Sep-12 02:26N 24°15' E 118°14'1 3.0
2017-Sep-12 01:57N 24°14' E 118°13'0 0.4
2017-Sep-12 01:02N 24°15' E 118°13'0 0.7
2017-Sep-12 00:54N 24°15' E 118°13'1 2.4
2017-Sep-12 00:29N 24°14' E 118°12'2 3.2
2017-Sep-11 23:55N 24°15' E 118°14'0 0.7
2017-Sep-11 23:30N 24°15' E 118°13'1 2.7
2017-Sep-11 22:59N 24°15' E 118°12'1 1.0
2017-Sep-11 22:28N 24°15' E 118°12'2 3.3
2017-Sep-11 22:00N 24°16' E 118°14'1 2.1
2017-Sep-11 21:30N 24°16' E 118°12'4 8.4
2017-Sep-11 21:00N 24°19' E 118°09'3 0.3
2017-Sep-11 07:59N 24°17' E 118°12'0 0.6
2017-Sep-11 07:23N 24°17' E 118°12'0 0.6
2017-Sep-11 06:52N 24°17' E 118°12'0 0.7
2017-Sep-11 06:17N 24°17' E 118°13'0 0.7
2017-Sep-11 05:58N 24°17' E 118°13'1 0.8
2017-Sep-11 05:13N 24°16' E 118°14'0 0.2
2017-Sep-11 04:48N 24°16' E 118°14'0 0.4
2017-Sep-11 04:27N 24°16' E 118°14'0 0.7
2017-Sep-11 03:57N 24°16' E 118°14'0 0.7
2017-Sep-11 03:30N 24°16' E 118°14'1 1.6
2017-Sep-11 02:58N 24°15' E 118°14'1 1.7
2017-Sep-11 02:28N 24°14' E 118°13'0 0.9
2017-Sep-11 02:00N 24°14' E 118°13'0 0.2
2017-Sep-11 01:26N 24°14' E 118°13'0 0.4
2017-Sep-11 00:58N 24°14' E 118°13'2 4.5
2017-Sep-11 00:30N 24°12' E 118°12'0 0.6
2017-Sep-10 23:57N 24°12' E 118°11'2 3.8
2017-Sep-10 23:29N 24°14' E 118°12'0 0.9
2017-Sep-10 23:00N 24°13' E 118°12'1 3.0
2017-Sep-10 22:30N 24°12' E 118°10'1 1.1
2017-Sep-10 22:00N 24°13' E 118°11'1 2.9
2017-Sep-10 21:30N 24°14' E 118°12'1 2.5
2017-Sep-10 20:59N 24°15' E 118°12'5 0.4
2017-Sep-10 09:00N 24°19' E 118°08'4 7.1
2017-Sep-10 08:27N 24°17' E 118°11'4 7.8
2017-Sep-10 07:59N 24°16' E 118°15'3 0.5
2017-Sep-10 00:47N 24°14' E 118°18'1 1.8
2017-Sep-10 00:29N 24°13' E 118°18'0 0.6
2017-Sep-10 00:00N 24°13' E 118°17'1 0.5
2017-Sep-09 21:02N 24°14' E 118°16'1 3.2
2017-Sep-09 20:47N 24°14' E 118°16'1 2.5
2017-Sep-09 20:19N 24°13' E 118°15'2 2.7
2017-Sep-09 19:29N 24°15' E 118°16'0 0.4
2017-Sep-09 18:42N 24°15' E 118°16'3 6.3
2017-Sep-09 18:14N 24°18' E 118°15'0 0.9
2017-Sep-09 17:59N 24°18' E 118°16'1 0.6
2017-Sep-09 17:08N 24°17' E 118°16'1 0.6
2017-Sep-09 16:07N 24°17' E 118°17'1 6.1
2017-Sep-09 16:00N 24°17' E 118°16'3 7.0
2017-Sep-09 15:30N 24°18' E 118°12'  

Dump ship's entire track history